Terminal Aerodrome Forecast
Issued by NWS

Current Version | Previous Version | Text Only | Print | Product List | Glossary Off
Versions: 1 2 3 4 5 6 7 8 9 10 11 12 13 14 15 16 17 18 19

000
FTUS41 KRLX 301735
TAFCKB
TAF
KCKB 301735Z 3018/3118 24005KT P6SM SCT050 BKN140
     FM310600 00000KT 6SM BR BKN045
     FM311300 VRB03KT P6SM BKN045=

USA.gov is the U.S. government's official web portal to all federal, state and local government web resources and services.